createdAt,value
2022-12-20T00:01:51.667Z,19.75
2022-12-20T00:04:18.844Z,17.08
2022-12-20T00:06:45.977Z,18.23
2022-12-20T00:09:13.392Z,15.18
2022-12-20T00:11:41.764Z,18.20
2022-12-20T00:14:10.303Z,19.63
2022-12-20T00:16:38.519Z,17.33
2022-12-20T00:19:06.899Z,17.98
2022-12-20T00:21:35.590Z,17.83
2022-12-20T00:24:03.228Z,17.02
2022-12-20T00:26:32.722Z,13.23
2022-12-20T00:29:01.535Z,19.25
2022-12-20T00:31:30.409Z,19.05
2022-12-20T00:34:04.082Z,18.52
2022-12-20T00:36:32.846Z,16.83
2022-12-20T00:39:01.405Z,14.02
2022-12-20T00:41:31.649Z,17.45
2022-12-20T00:43:58.859Z,16.50
2022-12-20T00:46:26.731Z,18.70
2022-12-20T00:48:56.269Z,18.85
2022-12-20T00:51:26.920Z,19.27
2022-12-20T00:53:55.757Z,18.60
2022-12-20T00:56:23.454Z,19.55
2022-12-20T00:58:56.284Z,20.40
2022-12-20T01:01:27.345Z,19.45
2022-12-20T01:03:54.946Z,16.42
2022-12-20T01:06:24.564Z,19.55
2022-12-20T01:08:53.293Z,20.33
2022-12-20T01:11:26.390Z,19.15
2022-12-20T01:13:56.380Z,20.88
2022-12-20T01:16:35.233Z,20.10
2022-12-20T01:19:03.301Z,21.73
2022-12-20T01:21:31.401Z,22.40
2022-12-20T01:23:59.643Z,20.33
2022-12-20T01:26:29.528Z,19.98
2022-12-20T01:28:59.138Z,19.63
2022-12-20T01:31:28.101Z,19.48
2022-12-20T01:33:55.846Z,20.50
2022-12-20T01:36:26.951Z,20.20
2022-12-20T01:39:09.708Z,18.67
2022-12-20T01:41:39.938Z,15.07
2022-12-20T01:44:27.283Z,19.90
2022-12-20T01:47:00.605Z,18.65
2022-12-20T01:52:31.532Z,19.88
2022-12-20T01:55:11.187Z,20.20
2022-12-20T01:57:47.492Z,16.35
2022-12-20T02:00:16.828Z,18.63
2022-12-20T02:02:47.822Z,20.17
2022-12-20T02:05:17.333Z,17.85
2022-12-20T02:07:49.161Z,15.10
2022-12-20T02:10:17.901Z,18.58
2022-12-20T02:12:47.834Z,20.52
2022-12-20T02:15:29.468Z,19.83
2022-12-20T02:18:05.441Z,21.60
2022-12-20T02:20:38.901Z,19.42
2022-12-20T02:23:17.924Z,21.85
2022-12-20T02:26:02.444Z,17.67
2022-12-20T02:28:51.939Z,20.30
2022-12-20T02:31:26.001Z,21.95
2022-12-20T02:33:56.335Z,20.00
2022-12-20T02:36:25.669Z,17.48
2022-12-20T02:38:55.275Z,17.10
2022-12-20T02:41:44.367Z,18.80
2022-12-20T02:44:37.097Z,17.65
2022-12-20T02:47:09.867Z,18.33
2022-12-20T02:49:41.586Z,18.48
2022-12-20T02:52:16.062Z,15.45
2022-12-20T02:54:45.531Z,13.18
2022-12-20T02:57:25.911Z,18.63
2022-12-20T03:00:09.988Z,18.38
2022-12-20T03:02:57.058Z,17.15
2022-12-20T03:05:27.117Z,18.55
2022-12-20T03:07:54.795Z,18.05
2022-12-20T03:10:32.158Z,19.48
2022-12-20T03:12:59.644Z,18.48
2022-12-20T03:15:27.051Z,17.08
2022-12-20T03:17:54.583Z,18.85
2022-12-20T03:20:23.016Z,16.80
2022-12-20T03:22:50.442Z,19.17
2022-12-20T03:25:17.876Z,18.27
2022-12-20T03:27:45.445Z,18.08
2022-12-20T03:30:13.318Z,19.55
2022-12-20T03:32:41.868Z,19.30
2022-12-20T03:35:11.554Z,18.17
2022-12-20T03:37:38.912Z,20.40
2022-12-20T03:40:08.379Z,19.27
2022-12-20T03:42:36.346Z,15.48
2022-12-20T03:45:06.271Z,21.40
2022-12-20T03:47:33.811Z,19.02
2022-12-20T03:50:01.285Z,15.40
2022-12-20T03:52:29.651Z,14.38
2022-12-20T03:54:57.172Z,19.70
2022-12-20T03:57:24.511Z,20.77
2022-12-20T03:59:52.086Z,20.58
2022-12-20T04:02:19.296Z,20.33
2022-12-20T04:04:48.104Z,19.75
2022-12-20T04:07:16.204Z,19.85
2022-12-20T04:09:44.414Z,18.90
2022-12-20T04:12:11.842Z,19.73
2022-12-20T04:14:39.356Z,19.13
2022-12-20T04:17:07.079Z,16.63
2022-12-20T04:19:34.307Z,14.70
2022-12-20T04:22:05.664Z,20.02
2022-12-20T04:24:33.796Z,18.73
2022-12-20T04:27:01.238Z,20.05
2022-12-20T04:29:28.693Z,17.00
2022-12-20T04:31:56.232Z,17.98
2022-12-20T04:34:30.847Z,15.40
2022-12-20T04:36:58.207Z,16.00
2022-12-20T04:39:25.752Z,18.25
2022-12-20T04:41:54.076Z,19.98
2022-12-20T04:44:21.619Z,20.23
2022-12-20T04:46:49.139Z,19.75
2022-12-20T04:49:16.841Z,16.92
2022-12-20T04:51:44.007Z,17.25
2022-12-20T04:54:12.513Z,17.27
2022-12-20T04:56:39.919Z,19.48
2022-12-20T04:59:07.392Z,20.38
2022-12-20T05:01:36.074Z,16.67
2022-12-20T05:04:04.620Z,19.35
2022-12-20T05:06:31.803Z,20.58
2022-12-20T05:09:00.357Z,22.05
2022-12-20T05:11:27.742Z,16.83
2022-12-20T05:13:55.203Z,22.30
2022-12-20T05:16:23.728Z,19.80
2022-12-20T05:18:53.095Z,21.02
2022-12-20T05:21:38.987Z,19.35
2022-12-20T05:24:25.319Z,16.88
2022-12-20T05:26:52.411Z,22.30
2022-12-20T05:29:19.932Z,20.30
2022-12-20T05:31:47.850Z,18.85
2022-12-20T05:34:15.416Z,22.52
2022-12-20T05:36:42.821Z,22.38
2022-12-20T05:39:16.431Z,21.33
2022-12-20T05:41:43.916Z,20.92
2022-12-20T05:44:11.332Z,22.42
2022-12-20T05:46:38.805Z,21.15
2022-12-20T05:49:12.895Z,20.75
2022-12-20T05:51:41.409Z,21.73
2022-12-20T05:54:08.949Z,18.20
2022-12-20T05:56:38.299Z,22.25
2022-12-20T05:59:06.757Z,19.95
2022-12-20T06:01:34.342Z,18.05
2022-12-20T06:04:04.342Z,15.73
2022-12-20T06:06:31.719Z,22.85
2022-12-20T06:08:59.171Z,20.42
2022-12-20T06:11:30.091Z,20.95
2022-12-20T06:13:59.592Z,22.73
2022-12-20T06:16:27.580Z,21.10
2022-12-20T06:18:55.257Z,18.95
2022-12-20T06:21:23.025Z,22.70
2022-12-20T06:23:50.510Z,22.00
2022-12-20T06:26:19.327Z,19.95
2022-12-20T06:28:46.628Z,21.25
2022-12-20T06:31:14.304Z,21.67
2022-12-20T06:33:42.918Z,22.67
2022-12-20T06:36:10.559Z,22.45
2022-12-20T06:38:38.195Z,18.05
2022-12-20T06:41:05.409Z,23.90
2022-12-20T06:43:32.781Z,24.13
2022-12-20T06:46:08.466Z,20.10
2022-12-20T06:48:35.898Z,25.20
2022-12-20T06:51:03.377Z,24.23
2022-12-20T06:53:30.924Z,18.17
2022-12-20T06:56:04.687Z,20.00
2022-12-20T06:58:33.886Z,16.25
2022-12-20T07:01:01.061Z,22.48
2022-12-20T07:03:28.793Z,17.83
2022-12-20T07:05:57.082Z,20.48
2022-12-20T07:08:25.068Z,16.98
2022-12-20T07:10:55.377Z,19.58
2022-12-20T07:13:23.022Z,21.25
2022-12-20T07:16:01.298Z,22.52
2022-12-20T07:18:29.561Z,20.75
2022-12-20T07:21:04.328Z,21.77
2022-12-20T07:23:32.045Z,21.42
2022-12-20T07:26:01.825Z,21.38
2022-12-20T07:28:30.293Z,21.75
2022-12-20T07:31:01.926Z,21.13
2022-12-20T07:33:29.702Z,21.17
2022-12-20T07:36:09.011Z,21.65
2022-12-20T07:38:36.512Z,18.15
2022-12-20T07:41:10.749Z,21.08
2022-12-20T07:43:38.441Z,22.10
2022-12-20T07:46:09.167Z,21.23
2022-12-20T07:48:36.467Z,22.38
2022-12-20T07:51:12.533Z,21.15
2022-12-20T07:53:45.959Z,22.02
2022-12-20T07:58:42.937Z,20.58
2022-12-20T08:01:11.711Z,22.35
2022-12-20T08:03:52.464Z,18.50
2022-12-20T08:06:20.306Z,16.55
2022-12-20T08:08:51.565Z,19.77
2022-12-20T08:11:22.933Z,21.48
2022-12-20T08:13:57.554Z,21.83
2022-12-20T08:16:27.557Z,20.13
2022-12-20T08:18:54.905Z,17.70
2022-12-20T08:21:22.014Z,14.05
2022-12-20T08:23:49.327Z,20.10
2022-12-20T08:26:16.695Z,20.10
2022-12-20T08:28:43.786Z,18.48
2022-12-20T08:31:13.193Z,21.50
2022-12-20T08:33:41.557Z,21.00
2022-12-20T08:36:11.393Z,19.27
2022-12-20T08:38:40.959Z,19.27
2022-12-20T08:41:12.364Z,19.30
2022-12-20T08:43:41.468Z,18.85
2022-12-20T08:46:10.730Z,18.67
2022-12-20T08:48:38.855Z,20.30
2022-12-20T08:51:09.113Z,19.85
2022-12-20T08:53:36.668Z,17.17
2022-12-20T08:56:21.931Z,18.70
2022-12-20T08:58:49.316Z,16.98
2022-12-20T09:01:18.820Z,17.63
2022-12-20T09:03:52.258Z,15.40
2022-12-20T09:08:49.440Z,18.55
2022-12-20T09:11:20.570Z,17.67
2022-12-20T09:13:50.532Z,19.27
2022-12-20T09:16:20.016Z,17.20
2022-12-20T09:19:00.712Z,20.20
2022-12-20T09:21:32.543Z,16.70
2022-12-20T09:24:00.010Z,19.40
2022-12-20T09:26:27.483Z,19.35
2022-12-20T09:28:55.326Z,19.70
2022-12-20T09:31:25.308Z,17.60
2022-12-20T09:34:01.443Z,17.70
2022-12-20T09:36:30.513Z,20.13
2022-12-20T09:38:59.137Z,17.30
2022-12-20T09:41:39.661Z,19.23
2022-12-20T09:44:20.725Z,18.27
2022-12-20T09:47:12.883Z,20.33
2022-12-20T09:49:44.274Z,20.33
2022-12-20T09:52:30.163Z,18.42
2022-12-20T09:55:16.306Z,18.13
2022-12-20T09:58:15.545Z,17.90
2022-12-20T10:00:54.284Z,19.67
2022-12-20T10:03:28.196Z,18.65
2022-12-20T10:06:00.703Z,18.58
2022-12-20T10:08:55.532Z,18.97
2022-12-20T10:11:39.771Z,18.90
2022-12-20T10:14:25.648Z,18.98
2022-12-20T10:17:05.476Z,19.00
2022-12-20T10:20:11.427Z,18.55
2022-12-20T10:22:49.513Z,18.67
2022-12-20T10:25:23.308Z,15.88
2022-12-20T10:27:55.456Z,17.42
2022-12-20T10:30:25.777Z,17.77
2022-12-20T10:32:56.273Z,18.88
2022-12-20T10:35:50.849Z,16.08
2022-12-20T10:38:21.059Z,16.73
2022-12-20T10:44:03.048Z,18.80
2022-12-20T10:46:40.512Z,17.42
2022-12-20T10:49:45.696Z,14.30
2022-12-20T10:52:14.459Z,23.98
2022-12-20T10:54:47.265Z,16.85
2022-12-20T10:57:17.088Z,17.48
2022-12-20T10:59:59.089Z,17.75
2022-12-20T11:02:39.546Z,16.63
2022-12-20T11:05:11.751Z,14.85
2022-12-20T11:11:14.643Z,14.77
2022-12-20T11:13:45.837Z,17.10
2022-12-20T11:16:36.488Z,17.52
2022-12-20T11:19:34.414Z,14.25
2022-12-20T11:22:39.678Z,15.68
2022-12-20T11:25:37.892Z,17.92
2022-12-20T11:28:15.952Z,16.55
2022-12-20T11:30:58.454Z,17.15
2022-12-20T11:33:46.948Z,16.75
2022-12-20T11:36:19.695Z,18.33
2022-12-20T11:39:08.935Z,19.25
2022-12-20T11:41:56.139Z,16.30
2022-12-20T11:44:55.547Z,18.75
2022-12-20T11:47:43.312Z,18.40
2022-12-20T11:50:32.402Z,15.30
2022-12-20T11:53:09.124Z,13.07
2022-12-20T11:55:45.469Z,17.50
2022-12-20T11:58:41.338Z,19.15
2022-12-20T12:01:14.394Z,20.27
2022-12-20T12:03:58.764Z,20.10
2022-12-20T12:06:41.095Z,26.33
2022-12-20T12:09:37.932Z,26.05
2022-12-20T12:12:17.578Z,23.00
2022-12-20T12:15:42.853Z,24.92
2022-12-20T12:18:24.762Z,25.50
2022-12-20T12:20:56.359Z,22.85
2022-12-20T12:23:49.520Z,23.23
2022-12-20T12:26:30.923Z,24.23
2022-12-20T12:29:12.571Z,23.77
2022-12-20T12:32:02.858Z,25.10
2022-12-20T12:35:05.887Z,20.38
2022-12-20T12:37:55.287Z,21.15
2022-12-20T12:41:03.975Z,23.92
2022-12-20T12:43:48.458Z,23.63
2022-12-20T12:46:31.387Z,20.33
2022-12-20T12:49:15.902Z,23.80
2022-12-20T12:51:50.714Z,25.02
2022-12-20T12:54:35.173Z,24.80
2022-12-20T12:57:07.206Z,22.25
2022-12-20T12:59:34.546Z,22.60
2022-12-20T13:02:04.707Z,24.02
2022-12-20T13:04:57.897Z,25.58
2022-12-20T13:07:37.429Z,24.67
2022-12-20T13:10:18.624Z,24.88
2022-12-20T13:12:59.013Z,22.80
2022-12-20T13:15:26.425Z,23.27
2022-12-20T13:18:01.569Z,25.27
2022-12-20T13:20:35.094Z,24.52
2022-12-20T13:25:47.265Z,24.75
2022-12-20T13:28:25.769Z,24.88
2022-12-20T13:31:02.845Z,23.05
2022-12-20T13:33:48.768Z,24.48
2022-12-20T13:36:36.511Z,23.83
2022-12-20T13:39:23.904Z,23.58
2022-12-20T13:42:18.305Z,24.70
2022-12-20T13:44:54.724Z,26.70
2022-12-20T13:47:37.875Z,26.63
2022-12-20T13:50:40.825Z,25.73
2022-12-20T13:53:20.286Z,26.35
2022-12-20T13:55:50.606Z,25.88
2022-12-20T13:58:37.164Z,25.05
2022-12-20T14:01:08.028Z,25.73
2022-12-20T14:03:41.909Z,21.95
2022-12-20T14:06:19.203Z,25.67
2022-12-20T14:08:52.842Z,26.77
2022-12-20T14:11:29.560Z,23.58
2022-12-20T14:14:03.670Z,25.60
2022-12-20T14:16:34.318Z,25.85
2022-12-20T14:19:05.802Z,25.25
2022-12-20T14:21:39.953Z,25.98
2022-12-20T14:24:22.252Z,26.88
2022-12-20T14:26:53.063Z,25.33
2022-12-20T14:29:30.757Z,25.63
2022-12-20T14:31:58.968Z,25.25
2022-12-20T14:34:36.571Z,24.42
2022-12-20T14:37:32.216Z,25.17
2022-12-20T14:40:18.110Z,25.15
2022-12-20T14:42:46.035Z,38.85
2022-12-20T14:45:13.700Z,28.23
2022-12-20T14:47:59.888Z,26.40
2022-12-20T14:50:36.471Z,21.17
2022-12-20T14:53:04.903Z,24.38
2022-12-20T14:55:36.813Z,19.10
2022-12-20T14:58:23.630Z,21.70
2022-12-20T15:01:22.180Z,22.33
2022-12-20T15:03:59.289Z,22.20
2022-12-20T15:06:41.672Z,21.85
2022-12-20T15:09:09.418Z,22.13
2022-12-20T15:11:38.860Z,25.27
2022-12-20T15:14:34.283Z,22.40
2022-12-20T15:17:01.818Z,27.17
2022-12-20T15:19:31.731Z,22.80
2022-12-20T15:21:59.335Z,19.27
2022-12-20T15:24:29.409Z,21.80
2022-12-20T15:26:57.436Z,24.27
2022-12-20T15:29:28.959Z,25.52
2022-12-20T15:32:30.103Z,24.75
2022-12-20T15:34:58.739Z,25.17
2022-12-20T15:37:25.987Z,26.23
2022-12-20T15:39:53.484Z,26.52
2022-12-20T15:42:23.983Z,26.50
2022-12-20T15:44:51.580Z,26.02
2022-12-20T15:47:19.088Z,24.30
2022-12-20T15:49:50.501Z,26.17
2022-12-20T15:52:24.019Z,26.45
2022-12-20T15:54:53.595Z,26.60
2022-12-20T15:57:21.800Z,26.50
2022-12-20T16:00:00.464Z,26.60
2022-12-20T16:02:31.305Z,24.27
2022-12-20T16:05:00.125Z,25.95
2022-12-20T16:07:28.799Z,26.65
2022-12-20T16:09:56.236Z,26.48
2022-12-20T16:12:27.824Z,27.02
2022-12-20T16:14:55.505Z,21.48
2022-12-20T16:17:22.776Z,25.27
2022-12-20T16:19:52.260Z,26.13
2022-12-20T16:22:25.203Z,25.55
2022-12-20T16:24:52.751Z,24.35
2022-12-20T16:27:20.734Z,24.65
2022-12-20T16:29:48.190Z,25.50
2022-12-20T16:32:20.299Z,26.90
2022-12-20T16:34:49.747Z,24.92
2022-12-20T16:37:23.558Z,25.65
2022-12-20T16:39:52.792Z,25.80
2022-12-20T16:42:23.548Z,28.27
2022-12-20T16:44:54.713Z,25.67
2022-12-20T16:47:28.601Z,28.13
2022-12-20T16:49:56.036Z,27.67
2022-12-20T16:52:29.816Z,25.08
2022-12-20T16:54:58.044Z,27.95
2022-12-20T16:57:25.536Z,25.80
2022-12-20T16:59:52.961Z,26.35
2022-12-20T17:02:26.447Z,29.65
2022-12-20T17:04:54.087Z,28.25
2022-12-20T17:07:21.888Z,26.42
2022-12-20T17:09:49.547Z,24.85
2022-12-20T17:12:23.609Z,28.45
2022-12-20T17:14:53.156Z,27.00
2022-12-20T17:17:20.749Z,18.55
2022-12-20T17:19:48.135Z,20.67
2022-12-20T17:22:23.364Z,25.45
2022-12-20T17:24:50.606Z,25.52
2022-12-20T17:27:19.254Z,23.00
2022-12-20T17:29:47.553Z,25.75
2022-12-20T17:32:23.746Z,25.92
2022-12-20T17:34:51.820Z,25.63
2022-12-20T17:37:21.465Z,24.35
2022-12-20T17:39:49.269Z,25.20
2022-12-20T17:42:17.780Z,26.75
2022-12-20T17:44:46.583Z,25.73
2022-12-20T17:47:14.222Z,24.35
2022-12-20T17:49:41.561Z,19.80
2022-12-20T17:52:17.708Z,21.65
2022-12-20T17:54:47.264Z,27.02
2022-12-20T17:57:16.603Z,27.10
2022-12-20T17:59:44.403Z,28.23
2022-12-20T18:02:30.412Z,22.20
2022-12-20T18:05:01.540Z,22.85
2022-12-20T18:07:29.082Z,29.95
2022-12-20T18:09:56.461Z,21.85
2022-12-20T18:12:24.005Z,25.13
2022-12-20T18:14:51.727Z,25.00
2022-12-20T18:17:19.023Z,26.60
2022-12-20T18:19:46.389Z,26.42
2022-12-20T18:22:15.034Z,19.27
2022-12-20T18:24:42.224Z,24.73
2022-12-20T18:27:10.294Z,25.00
2022-12-20T18:29:37.908Z,24.70
2022-12-20T18:32:06.062Z,25.92
2022-12-20T18:34:34.167Z,26.25
2022-12-20T18:37:05.827Z,25.40
2022-12-20T18:39:34.508Z,25.67
2022-12-20T18:42:02.893Z,26.70
2022-12-20T18:44:36.036Z,22.15
2022-12-20T18:47:04.369Z,24.75
2022-12-20T18:49:33.314Z,27.65
2022-12-20T18:52:01.046Z,28.60
2022-12-20T18:54:28.600Z,25.08
2022-12-20T18:56:56.451Z,25.40
2022-12-20T18:59:23.749Z,30.25
2022-12-20T19:01:51.017Z,25.33
2022-12-20T19:04:24.250Z,35.70
2022-12-20T19:06:58.457Z,22.17
2022-12-20T19:09:26.749Z,23.70
2022-12-20T19:11:57.640Z,25.35
2022-12-20T19:14:26.637Z,26.95
2022-12-20T19:16:55.833Z,28.15
2022-12-20T19:19:24.268Z,26.90
2022-12-20T19:21:52.192Z,28.45
2022-12-20T19:24:20.659Z,23.00
2022-12-20T19:26:48.308Z,27.08
2022-12-20T19:29:15.902Z,25.48
2022-12-20T19:31:44.160Z,30.20
2022-12-20T19:34:13.575Z,28.05
2022-12-20T19:36:48.639Z,30.08
2022-12-20T19:39:20.847Z,29.77
2022-12-20T19:42:14.000Z,22.30
2022-12-20T19:44:36.827Z,28.80
2022-12-20T19:47:07.563Z,31.42
2022-12-20T19:49:36.497Z,31.02
2022-12-20T19:52:05.458Z,32.03
2022-12-20T19:54:34.438Z,24.98
2022-12-20T19:57:02.060Z,28.52
2022-12-20T19:59:31.260Z,24.13
2022-12-20T20:01:58.748Z,28.98
2022-12-20T20:04:26.255Z,27.60
2022-12-20T20:06:56.674Z,28.17
2022-12-20T20:09:24.288Z,28.88
2022-12-20T20:11:54.618Z,29.08
2022-12-20T20:14:23.013Z,29.90
2022-12-20T20:16:51.006Z,28.40
2022-12-20T20:19:21.067Z,28.45
2022-12-20T20:21:49.556Z,27.90
2022-12-20T20:24:19.321Z,29.48
2022-12-20T20:26:47.590Z,29.17
2022-12-20T20:29:16.089Z,28.38
2022-12-20T20:31:45.638Z,29.88
2022-12-20T20:34:13.486Z,28.10
2022-12-20T20:36:49.189Z,27.80
2022-12-20T20:39:16.709Z,30.02
2022-12-20T20:41:44.387Z,28.98
2022-12-20T20:44:12.678Z,29.75
2022-12-20T20:46:42.176Z,29.67
2022-12-20T20:49:10.913Z,28.83
2022-12-20T20:51:38.600Z,28.58
2022-12-20T20:54:07.300Z,30.40
2022-12-20T20:56:34.939Z,27.80
2022-12-20T20:59:07.047Z,29.05
2022-12-20T21:01:36.615Z,28.60
2022-12-20T21:04:05.141Z,29.52
2022-12-20T21:06:39.981Z,28.27
2022-12-20T21:09:09.145Z,32.88
2022-12-20T21:11:37.330Z,31.52
2022-12-20T21:14:05.479Z,32.88
2022-12-20T21:16:33.120Z,31.77
2022-12-20T21:19:00.645Z,31.90
2022-12-20T21:21:28.592Z,30.60
2022-12-20T21:23:56.488Z,25.25
2022-12-20T21:26:27.850Z,27.48
2022-12-20T21:28:59.663Z,27.90
2022-12-20T21:31:27.745Z,29.23
2022-12-20T21:33:57.749Z,22.08
2022-12-20T21:36:25.699Z,26.77
2022-12-20T21:38:55.890Z,24.40
2022-12-20T21:41:27.053Z,22.73
2022-12-20T21:44:01.025Z,29.08
2022-12-20T21:46:32.142Z,28.48
2022-12-20T21:49:05.521Z,29.73
2022-12-20T21:51:33.285Z,28.55
2022-12-20T21:54:03.731Z,27.92
2022-12-20T21:56:34.272Z,30.27
2022-12-20T21:59:04.320Z,54.88
2022-12-20T22:01:32.375Z,45.50
2022-12-20T22:04:06.836Z,52.25
2022-12-20T22:06:35.606Z,45.45
2022-12-20T22:09:07.699Z,32.38
2022-12-20T22:11:35.519Z,31.00
2022-12-20T22:14:12.097Z,31.27
2022-12-20T22:16:39.467Z,31.42
2022-12-20T22:19:06.538Z,29.05
2022-12-20T22:21:36.340Z,28.85
2022-12-20T22:24:04.489Z,21.90
2022-12-20T22:26:33.850Z,25.27
2022-12-20T22:29:05.091Z,31.08
2022-12-20T22:31:32.928Z,29.33
2022-12-20T22:34:01.015Z,31.20
2022-12-20T22:36:28.621Z,31.02
2022-12-20T22:38:57.110Z,28.75
2022-12-20T22:41:29.150Z,24.23
2022-12-20T22:43:59.057Z,25.48
2022-12-20T22:49:18.148Z,30.90
2022-12-20T22:51:55.137Z,32.83
2022-12-20T22:54:30.089Z,34.22
2022-12-20T22:56:57.626Z,30.25
2022-12-20T22:59:25.085Z,34.22
2022-12-20T23:01:52.204Z,32.05
2022-12-20T23:04:21.561Z,33.30
2022-12-20T23:06:48.989Z,34.55
2022-12-20T23:09:17.385Z,30.85
2022-12-20T23:12:03.479Z,33.58
2022-12-20T23:14:49.234Z,34.53
2022-12-20T23:17:16.968Z,32.90
2022-12-20T23:20:10.937Z,32.75
2022-12-20T23:22:45.379Z,32.35
2022-12-20T23:25:15.867Z,33.03
2022-12-20T23:27:45.325Z,32.35
2022-12-20T23:30:15.072Z,33.60
2022-12-20T23:32:44.970Z,32.08
2022-12-20T23:35:14.186Z,33.45
2022-12-20T23:37:42.088Z,32.17
2022-12-20T23:40:10.872Z,33.85
2022-12-20T23:42:38.829Z,32.13
2022-12-20T23:45:06.693Z,31.55
2022-12-20T23:47:33.772Z,33.22
2022-12-20T23:50:01.254Z,29.08
2022-12-20T23:52:28.397Z,30.38
2022-12-20T23:54:57.739Z,32.47
2022-12-20T23:57:25.190Z,29.85
2022-12-20T23:59:52.154Z,30.35
